createdAt,value
2023-02-11T00:01:33.082Z,-4.00
2023-02-11T00:11:38.376Z,-4.10
2023-02-11T00:21:42.402Z,-4.30
2023-02-11T00:31:48.201Z,-4.50
2023-02-11T00:41:52.295Z,-4.60
2023-02-11T00:51:57.492Z,-4.70
2023-02-11T01:02:01.456Z,-4.80
2023-02-11T01:12:07.242Z,-4.90
2023-02-11T01:22:11.312Z,-5.00
2023-02-11T01:32:16.608Z,-5.00
2023-02-11T01:42:23.446Z,-5.00
2023-02-11T01:52:34.034Z,-5.10
2023-02-11T02:02:46.098Z,-5.10
2023-02-11T02:12:51.404Z,-5.10
2023-02-11T02:23:29.946Z,-5.10
2023-02-11T02:33:47.956Z,-5.00
2023-02-11T02:43:53.155Z,-5.00
2023-02-11T02:54:22.462Z,-4.70
2023-02-11T03:04:34.399Z,-4.30
2023-02-11T03:14:41.858Z,-4.00
2023-02-11T03:24:46.922Z,-3.70
2023-02-11T03:34:57.748Z,-3.50
2023-02-11T03:45:07.102Z,-3.30
2023-02-11T03:55:17.470Z,-3.00
2023-02-11T04:05:21.445Z,-2.80
2023-02-11T04:15:27.251Z,-2.60
2023-02-11T04:25:30.973Z,-2.50
2023-02-11T04:35:36.135Z,-2.50
2023-02-11T04:45:39.989Z,-2.50
2023-02-11T04:55:45.245Z,-2.50
2023-02-11T05:05:49.304Z,-2.40
2023-02-11T05:15:54.541Z,-2.30
2023-02-11T05:25:58.366Z,-2.30
2023-02-11T05:36:06.127Z,-2.40
2023-02-11T05:46:10.041Z,-2.40
2023-02-11T05:56:15.196Z,-2.20
2023-02-11T06:06:19.161Z,-2.00
2023-02-11T06:16:24.775Z,-2.00
2023-02-11T06:26:28.720Z,-2.00
2023-02-11T06:36:34.010Z,-2.00
2023-02-11T06:46:37.941Z,-2.00
2023-02-11T06:56:43.547Z,-1.50
2023-02-11T07:06:47.323Z,-1.30
2023-02-11T07:16:52.579Z,-0.90
2023-02-11T07:26:56.236Z,-0.60
2023-02-11T07:37:01.594Z,-0.30
2023-02-11T07:47:05.464Z,0.10
2023-02-11T07:57:11.229Z,0.50
2023-02-11T08:07:17.446Z,1.50
2023-02-11T08:17:22.664Z,3.80
2023-02-11T08:27:26.769Z,6.50
2023-02-11T08:37:33.094Z,10.20
2023-02-11T08:47:36.916Z,13.50
2023-02-11T08:57:42.019Z,16.70
2023-02-11T09:07:45.788Z,17.30
2023-02-11T09:17:50.961Z,20.40
2023-02-11T09:27:54.828Z,20.90
2023-02-11T09:38:12.655Z,16.90
2023-02-11T09:48:19.600Z,13.10
2023-02-11T09:58:28.962Z,10.90
2023-02-11T10:08:45.158Z,8.60
2023-02-11T10:19:17.286Z,7.10
2023-02-11T10:29:36.307Z,6.50
2023-02-11T10:39:42.826Z,6.40
2023-02-11T10:49:48.251Z,6.10
2023-02-11T11:00:00.304Z,6.90
2023-02-11T11:10:08.637Z,9.70
2023-02-11T11:20:24.528Z,13.70
2023-02-11T11:30:34.611Z,12.80
2023-02-11T11:40:40.249Z,19.00
2023-02-11T11:50:48.657Z,18.00
2023-02-11T12:01:11.884Z,16.50
2023-02-11T12:11:25.684Z,11.90
2023-02-11T12:21:41.736Z,9.40
2023-02-11T12:32:00.961Z,8.00
2023-02-11T12:42:52.635Z,6.50
2023-02-11T12:53:27.032Z,5.80
2023-02-11T13:03:39.406Z,5.20
2023-02-11T13:13:53.099Z,4.70
2023-02-11T13:24:09.519Z,4.40
2023-02-11T13:34:27.814Z,4.00
2023-02-11T13:44:36.293Z,3.70
2023-02-11T13:54:42.588Z,3.70
2023-02-11T14:05:42.784Z,3.70
2023-02-11T14:15:47.914Z,3.70
2023-02-11T14:26:37.087Z,3.60
2023-02-11T14:36:56.844Z,3.50
2023-02-11T14:47:02.273Z,3.30
2023-02-11T14:57:13.309Z,3.20
2023-02-11T15:07:19.591Z,3.20
2023-02-11T15:17:27.321Z,3.10
2023-02-11T15:27:41.354Z,2.90
2023-02-11T15:37:48.843Z,2.60
2023-02-11T15:47:59.993Z,2.30
2023-02-11T15:58:05.906Z,2.00
2023-02-11T16:08:24.653Z,1.70
2023-02-11T16:18:38.725Z,1.60
2023-02-11T16:28:44.140Z,1.50
2023-02-11T16:38:47.861Z,1.40
2023-02-11T16:48:53.050Z,1.40
2023-02-11T16:58:56.580Z,1.40
2023-02-11T17:09:02.173Z,1.40
2023-02-11T17:19:05.804Z,1.40
2023-02-11T17:29:16.942Z,1.40
2023-02-11T17:39:21.270Z,1.40
2023-02-11T17:49:28.627Z,1.40
2023-02-11T17:59:35.541Z,1.40
2023-02-11T18:09:42.313Z,1.50
2023-02-11T18:19:46.230Z,1.40
2023-02-11T18:29:53.930Z,1.40
2023-02-11T18:39:57.706Z,1.50
2023-02-11T18:50:02.818Z,1.60
2023-02-11T19:00:10.208Z,1.60
2023-02-11T19:10:15.428Z,1.70
2023-02-11T19:20:19.944Z,1.80
2023-02-11T19:30:25.300Z,1.70
2023-02-11T19:40:29.341Z,1.80
2023-02-11T19:50:34.680Z,1.80
2023-02-11T20:00:38.470Z,1.80
2023-02-11T20:10:44.327Z,1.90
2023-02-11T20:20:48.195Z,1.90
2023-02-11T20:31:00.897Z,1.90
2023-02-11T20:41:09.762Z,2.00
2023-02-11T20:51:18.597Z,2.00
2023-02-11T21:01:29.497Z,2.10
2023-02-11T21:11:35.260Z,2.10
2023-02-11T21:21:40.254Z,2.10
2023-02-11T21:31:45.469Z,2.10
2023-02-11T21:41:49.268Z,2.20
2023-02-11T21:51:54.448Z,2.10
2023-02-11T22:01:58.851Z,2.20
2023-02-11T22:12:03.959Z,2.20
2023-02-11T22:22:08.151Z,2.20
2023-02-11T22:32:13.338Z,2.30
2023-02-11T22:42:17.122Z,2.20
2023-02-11T22:52:23.486Z,2.20
2023-02-11T23:02:27.416Z,2.10
2023-02-11T23:12:32.512Z,2.20
2023-02-11T23:22:36.383Z,2.20
2023-02-11T23:32:41.582Z,2.30
2023-02-11T23:42:45.931Z,2.40
2023-02-11T23:52:51.041Z,2.40
